createdAt,value
2017-03-19T00:01:47.770Z,22.30
2017-03-19T00:02:54.291Z,22.30
2017-03-19T00:03:56.511Z,22.30
2017-03-19T00:05:34.520Z,22.30
2017-03-19T00:06:42.014Z,22.30
2017-03-19T00:07:48.456Z,22.30
2017-03-19T00:08:57.449Z,22.20
2017-03-19T00:10:03.024Z,22.30
2017-03-19T00:11:11.021Z,22.20
2017-03-19T00:12:16.516Z,22.20
2017-03-19T00:13:24.057Z,22.20
2017-03-19T00:14:32.241Z,22.20
2017-03-19T00:15:42.248Z,22.20
2017-03-19T00:16:48.924Z,22.20
2017-03-19T00:17:55.635Z,22.20
2017-03-19T00:19:01.943Z,22.20
2017-03-19T00:21:14.900Z,22.20
2017-03-19T00:23:32.674Z,22.20
2017-03-19T00:24:48.303Z,22.20
2017-03-19T00:25:56.114Z,22.20
2017-03-19T00:27:06.784Z,22.20
2017-03-19T00:28:12.387Z,22.20
2017-03-19T00:29:28.078Z,22.10
2017-03-19T00:32:59.611Z,22.20
2017-03-19T07:44:09.517Z,21.90
2017-03-19T07:45:08.052Z,21.80
2017-03-19T07:46:06.609Z,21.90
2017-03-19T07:47:05.155Z,22.00
2017-03-19T07:48:03.666Z,22.00
2017-03-19T07:49:02.227Z,22.00
2017-03-19T07:50:00.821Z,22.00
2017-03-19T07:50:59.358Z,22.10
2017-03-19T07:51:57.920Z,22.10
2017-03-19T07:52:56.476Z,22.20
2017-03-19T07:53:55.029Z,22.20
2017-03-19T07:54:53.583Z,22.20
2017-03-19T07:55:52.158Z,22.20
2017-03-19T07:56:50.731Z,22.30
2017-03-19T07:57:49.271Z,22.30
2017-03-19T07:58:47.830Z,22.30
2017-03-19T07:59:46.395Z,22.30
2017-03-19T08:00:45.702Z,22.30
2017-03-19T08:01:44.283Z,22.30
2017-03-19T08:02:43.447Z,22.30
2017-03-19T08:03:41.998Z,22.30
2017-03-19T08:04:40.560Z,22.30
2017-03-19T08:05:39.093Z,22.30
2017-03-19T08:06:37.644Z,22.30
2017-03-19T08:07:36.871Z,22.30
2017-03-19T08:08:35.407Z,22.30
2017-03-19T08:09:33.954Z,22.30
2017-03-19T08:10:33.054Z,22.30
2017-03-19T08:11:31.595Z,22.30
2017-03-19T08:12:30.142Z,22.30
2017-03-19T08:13:28.728Z,22.30
2017-03-19T08:14:27.305Z,22.30
2017-03-19T08:15:25.853Z,22.30
2017-03-19T08:16:24.414Z,22.30
2017-03-19T08:17:22.973Z,22.30
2017-03-19T08:18:21.528Z,22.30
2017-03-19T08:19:20.106Z,22.30
2017-03-19T08:20:18.646Z,22.30
2017-03-19T08:21:17.197Z,22.30
2017-03-19T08:22:15.733Z,22.30
2017-03-19T08:23:14.294Z,22.30
2017-03-19T08:24:13.999Z,22.30
2017-03-19T08:25:12.581Z,22.30
2017-03-19T08:26:11.111Z,22.30
2017-03-19T08:27:09.686Z,22.30
2017-03-19T08:28:08.249Z,22.30
2017-03-19T08:29:06.790Z,22.30
2017-03-19T08:30:05.474Z,22.30
2017-03-19T08:31:04.070Z,22.30
2017-03-19T08:32:02.607Z,22.30
2017-03-19T08:33:01.269Z,22.20
2017-03-19T08:33:59.813Z,22.30
2017-03-19T08:34:58.350Z,22.20
2017-03-19T08:35:56.886Z,22.30
2017-03-19T08:36:55.450Z,22.20
2017-03-19T08:37:53.986Z,22.20
2017-03-19T08:38:52.515Z,22.20
2017-03-19T08:39:51.063Z,22.20
2017-03-19T08:40:49.625Z,22.20
2017-03-19T08:41:48.182Z,22.20
2017-03-19T08:42:47.500Z,22.20
2017-03-19T08:43:46.056Z,22.20
2017-03-19T08:44:44.668Z,22.20
2017-03-19T08:45:43.229Z,22.20
2017-03-19T08:46:41.786Z,22.20
2017-03-19T08:47:40.334Z,22.20
2017-03-19T08:48:38.931Z,22.20
2017-03-19T08:49:38.230Z,22.10
2017-03-19T08:50:37.566Z,22.20
2017-03-19T08:51:36.138Z,22.20
2017-03-19T08:52:34.706Z,22.20
2017-03-19T08:53:33.275Z,22.20
2017-03-19T08:54:32.596Z,22.10
2017-03-19T08:55:31.171Z,22.10
2017-03-19T08:56:29.722Z,22.10
2017-03-19T08:57:28.257Z,22.10
2017-03-19T08:58:27.666Z,22.10
2017-03-19T08:59:26.217Z,22.00
2017-03-19T09:00:24.825Z,22.00
2017-03-19T09:01:24.696Z,22.00
2017-03-19T09:02:23.295Z,22.00
2017-03-19T09:03:21.829Z,22.00
2017-03-19T09:04:20.495Z,22.00
2017-03-19T09:05:19.073Z,22.00
2017-03-19T09:06:17.842Z,22.00
2017-03-19T09:07:16.767Z,22.00
2017-03-19T09:08:16.117Z,22.00
2017-03-19T09:09:14.712Z,22.00
2017-03-19T09:10:13.318Z,22.00
2017-03-19T09:11:11.907Z,22.00
2017-03-19T09:12:11.116Z,22.00
2017-03-19T09:13:10.088Z,21.90
2017-03-19T09:14:08.633Z,22.00
2017-03-19T09:15:07.207Z,22.00
2017-03-19T09:16:06.613Z,22.00
2017-03-19T09:17:05.199Z,21.90
2017-03-19T09:18:04.240Z,21.90
2017-03-19T09:19:02.846Z,21.90
2017-03-19T09:20:03.850Z,22.00
2017-03-19T09:21:02.613Z,21.90
2017-03-19T09:22:01.166Z,21.90
2017-03-19T09:22:59.711Z,21.80
2017-03-19T09:23:58.337Z,21.80
2017-03-19T09:24:56.885Z,21.80
2017-03-19T09:25:56.578Z,21.80
2017-03-19T09:26:55.820Z,21.80
2017-03-19T09:27:54.443Z,21.90
2017-03-19T09:28:53.031Z,21.90
2017-03-19T09:29:51.612Z,21.90
2017-03-19T09:30:52.263Z,21.90
2017-03-19T09:31:51.194Z,21.90
2017-03-19T09:32:49.990Z,21.90
2017-03-19T09:33:48.542Z,21.90
2017-03-19T09:34:47.350Z,21.90
2017-03-19T09:35:45.958Z,21.90
2017-03-19T09:36:45.439Z,21.90
2017-03-19T09:37:45.710Z,21.80
2017-03-19T09:38:44.300Z,21.90
2017-03-19T09:39:44.490Z,21.90
2017-03-19T09:40:43.774Z,21.80
2017-03-19T09:41:42.422Z,21.90
2017-03-19T09:42:41.756Z,21.80
2017-03-19T09:43:41.064Z,21.90
2017-03-19T09:44:39.872Z,22.00
2017-03-19T09:45:39.424Z,21.90
2017-03-19T09:46:38.054Z,21.90
2017-03-19T09:47:36.671Z,22.00
2017-03-19T09:48:35.226Z,22.00
2017-03-19T09:49:33.781Z,22.00
2017-03-19T09:50:32.420Z,21.90
2017-03-19T09:51:30.998Z,21.90
2017-03-19T09:52:32.110Z,21.90
2017-03-19T09:53:30.845Z,21.90
2017-03-19T09:54:29.414Z,21.90
2017-03-19T09:55:28.242Z,22.00
2017-03-19T09:56:26.792Z,21.90
2017-03-19T09:57:25.349Z,22.00
2017-03-19T09:58:24.174Z,22.00
2017-03-19T09:59:24.091Z,21.90
2017-03-19T10:00:22.662Z,22.00
2017-03-19T10:01:21.264Z,21.90
2017-03-19T10:02:20.902Z,22.00
2017-03-19T10:03:19.494Z,21.90
2017-03-19T10:04:18.070Z,22.00
2017-03-19T10:05:16.755Z,22.00
2017-03-19T10:06:15.362Z,22.00
2017-03-19T10:07:14.064Z,22.00
2017-03-19T10:08:12.758Z,21.90
2017-03-19T10:09:11.361Z,22.00
2017-03-19T10:10:10.019Z,22.00
2017-03-19T10:11:08.630Z,22.00
2017-03-19T10:12:07.213Z,22.00
2017-03-19T10:13:06.670Z,22.00
2017-03-19T10:14:05.560Z,22.00
2017-03-19T10:15:04.222Z,22.00
2017-03-19T10:16:03.072Z,22.00
2017-03-19T10:17:01.767Z,22.10
2017-03-19T10:18:00.555Z,22.10
2017-03-19T10:18:59.497Z,22.10
2017-03-19T10:19:58.441Z,22.10
2017-03-19T10:20:57.838Z,22.00
2017-03-19T10:21:56.402Z,22.10
2017-03-19T10:22:55.203Z,22.10
2017-03-19T10:23:55.111Z,22.10
2017-03-19T10:24:53.849Z,22.10
2017-03-19T10:25:52.507Z,22.10
2017-03-19T10:26:51.390Z,22.10
2017-03-19T10:27:50.086Z,22.10
2017-03-19T10:28:48.657Z,22.10
2017-03-19T10:29:47.488Z,22.10
2017-03-19T10:30:46.392Z,22.10
2017-03-19T10:31:47.846Z,22.10
2017-03-19T10:32:47.485Z,22.20
2017-03-19T10:33:47.411Z,22.10
2017-03-19T10:34:46.905Z,22.20
2017-03-19T10:35:47.088Z,22.20
2017-03-19T10:36:46.547Z,22.20
2017-03-19T10:37:45.533Z,22.20
2017-03-19T10:38:44.995Z,22.20
2017-03-19T10:39:47.195Z,22.20
2017-03-19T10:40:46.429Z,22.20
2017-03-19T10:41:45.812Z,22.30
2017-03-19T10:42:44.783Z,22.30
2017-03-19T10:43:43.761Z,22.30
2017-03-19T10:44:44.430Z,22.30
2017-03-19T10:45:43.418Z,22.30
2017-03-19T10:46:42.336Z,22.30
2017-03-19T10:47:41.816Z,22.30
2017-03-19T10:48:46.881Z,22.30
2017-03-19T10:49:45.851Z,22.30
2017-03-19T10:50:44.978Z,22.30
2017-03-19T10:51:43.878Z,22.30
2017-03-19T10:52:42.834Z,22.30
2017-03-19T10:53:43.641Z,22.30
2017-03-19T10:54:43.182Z,22.30
2017-03-19T10:55:42.133Z,22.40
2017-03-19T10:56:42.230Z,22.40
2017-03-19T10:57:42.086Z,22.40
2017-03-19T10:58:42.973Z,22.30
2017-03-19T10:59:53.978Z,22.30
2017-03-19T11:00:53.459Z,22.30
2017-03-19T11:01:52.740Z,22.30
2017-03-19T11:02:59.646Z,22.30
2017-03-19T11:04:01.807Z,22.30
2017-03-19T11:05:04.963Z,22.30
2017-03-19T11:06:04.538Z,22.30
2017-03-19T11:07:03.683Z,22.30
2017-03-19T11:08:05.637Z,22.30
2017-03-19T11:09:05.016Z,22.30
2017-03-19T11:11:21.512Z,22.40
2017-03-19T11:12:22.208Z,22.40
2017-03-19T11:13:21.839Z,22.40
2017-03-19T11:14:22.094Z,22.40
2017-03-19T11:15:21.024Z,22.40
2017-03-19T11:16:20.796Z,22.30
2017-03-19T11:17:24.103Z,22.40
2017-03-19T11:18:24.515Z,22.40
2017-03-19T11:19:23.634Z,22.40
2017-03-19T11:20:22.647Z,22.40
2017-03-19T11:21:22.376Z,22.40
2017-03-19T11:22:21.281Z,22.40
2017-03-19T11:23:22.553Z,22.40
2017-03-19T11:24:21.765Z,22.40
2017-03-19T11:25:20.687Z,22.40
2017-03-19T11:26:20.360Z,22.40
2017-03-19T11:27:19.269Z,22.50
2017-03-19T11:28:17.903Z,22.50
2017-03-19T11:29:16.500Z,22.50
2017-03-19T11:30:15.414Z,22.50
2017-03-19T11:31:14.333Z,22.50
2017-03-19T11:32:13.259Z,22.50
2017-03-19T11:33:12.903Z,22.40
2017-03-19T11:34:12.329Z,22.50
2017-03-19T11:35:11.162Z,22.40
2017-03-19T11:36:10.477Z,22.50
2017-03-19T11:37:09.377Z,22.60
2017-03-19T11:38:09.273Z,22.60
2017-03-19T11:39:08.707Z,22.70
2017-03-19T11:40:07.637Z,22.80
2017-03-19T11:41:06.528Z,22.90
2017-03-19T11:42:05.454Z,22.90
2017-03-19T11:43:04.558Z,22.90
2017-03-19T11:44:03.454Z,23.00
2017-03-19T11:45:02.319Z,23.00
2017-03-19T11:46:01.636Z,23.00
2017-03-19T11:47:00.784Z,23.00
2017-03-19T11:47:59.696Z,23.00
2017-03-19T11:48:58.648Z,23.00
2017-03-19T11:49:57.295Z,23.00
2017-03-19T11:50:56.042Z,23.00
2017-03-19T11:51:54.905Z,23.00
2017-03-19T11:52:53.743Z,23.00
2017-03-19T11:53:52.547Z,23.00
2017-03-19T11:54:51.452Z,22.90
2017-03-19T11:55:53.022Z,22.90
2017-03-19T11:56:51.825Z,22.90
2017-03-19T11:57:51.298Z,22.90
2017-03-19T11:58:50.202Z,22.90
2017-03-19T11:59:49.141Z,22.90
2017-03-19T12:00:48.555Z,22.90
2017-03-19T12:01:47.461Z,22.90
2017-03-19T12:02:46.395Z,22.80
2017-03-19T12:03:45.330Z,22.80
2017-03-19T12:04:44.953Z,22.80
2017-03-19T12:05:44.370Z,22.80
2017-03-19T12:06:44.215Z,22.80
2017-03-19T12:07:43.167Z,22.80
2017-03-19T12:08:42.067Z,22.70
2017-03-19T12:09:41.584Z,22.70
2017-03-19T12:10:40.776Z,22.70
2017-03-19T12:11:39.725Z,22.80
2017-03-19T12:12:39.764Z,22.80
2017-03-19T12:13:39.502Z,22.80
2017-03-19T12:14:39.071Z,22.70
2017-03-19T12:15:38.695Z,22.70
2017-03-19T12:16:38.577Z,22.60
2017-03-19T12:17:38.708Z,22.60
2017-03-19T12:18:38.779Z,22.60
2017-03-19T12:19:38.421Z,22.60
2017-03-19T12:20:37.335Z,22.60
2017-03-19T12:21:36.274Z,22.60
2017-03-19T12:22:35.241Z,22.60
2017-03-19T12:23:34.240Z,22.60
2017-03-19T12:24:33.196Z,22.60
2017-03-19T12:25:32.419Z,22.60
2017-03-19T12:26:32.056Z,22.60
2017-03-19T12:27:31.689Z,22.60
2017-03-19T12:28:30.636Z,22.60
2017-03-19T12:29:29.524Z,22.60
2017-03-19T12:30:28.801Z,22.60
2017-03-19T12:31:27.681Z,22.60
2017-03-19T12:32:27.256Z,22.60
2017-03-19T12:33:26.204Z,22.60
2017-03-19T12:34:26.293Z,22.60
2017-03-19T12:35:25.268Z,22.60
2017-03-19T12:36:24.230Z,22.60
2017-03-19T12:37:23.259Z,22.60
2017-03-19T12:38:23.171Z,22.50
2017-03-19T12:39:22.135Z,22.50
2017-03-19T12:40:21.881Z,22.50
2017-03-19T12:41:20.981Z,22.50
2017-03-19T12:42:19.974Z,22.50
2017-03-19T12:43:20.577Z,22.50
2017-03-19T12:44:20.072Z,22.50
2017-03-19T12:45:20.179Z,22.50
2017-03-19T12:46:19.270Z,22.50
2017-03-19T12:47:18.238Z,22.50
2017-03-19T12:48:17.438Z,22.50
2017-03-19T12:49:17.207Z,22.50
2017-03-19T12:50:17.884Z,22.50
2017-03-19T12:51:17.120Z,22.50
2017-03-19T12:52:17.621Z,22.50
2017-03-19T12:53:16.893Z,22.50
2017-03-19T12:54:17.444Z,22.40
2017-03-19T12:55:16.747Z,22.40
2017-03-19T12:56:15.688Z,22.40
2017-03-19T12:57:14.555Z,22.40
2017-03-19T12:58:13.415Z,22.40
2017-03-19T12:59:12.575Z,22.40
2017-03-19T13:00:11.573Z,22.40
2017-03-19T13:01:10.499Z,22.40
2017-03-19T13:02:11.123Z,22.40
2017-03-19T13:03:10.117Z,22.40
2017-03-19T13:04:09.009Z,22.40
2017-03-19T13:05:08.099Z,22.40
2017-03-19T13:06:08.417Z,22.40
2017-03-19T13:07:07.863Z,22.40
2017-03-19T13:08:06.712Z,22.40
2017-03-19T13:09:08.995Z,22.40
2017-03-19T13:11:24.956Z,22.40
2017-03-19T13:12:23.910Z,22.40
2017-03-19T13:13:22.851Z,22.40
2017-03-19T13:14:23.664Z,22.30
2017-03-19T13:15:23.632Z,22.30
2017-03-19T13:16:23.004Z,22.40
2017-03-19T13:17:26.420Z,22.40
2017-03-19T13:18:27.388Z,22.40
2017-03-19T13:19:27.943Z,22.40
2017-03-19T13:20:27.158Z,22.40
2017-03-19T13:21:27.017Z,22.40
2017-03-19T13:22:27.335Z,22.40
2017-03-19T13:23:27.058Z,22.40
2017-03-19T13:24:26.649Z,22.40
2017-03-19T13:25:38.429Z,22.40
2017-03-19T13:26:37.500Z,22.40
2017-03-19T13:27:36.550Z,22.40
2017-03-19T13:28:35.647Z,22.40
2017-03-19T13:29:35.123Z,22.40
2017-03-19T13:30:34.959Z,22.40
2017-03-19T13:31:33.972Z,22.40
2017-03-19T13:32:33.515Z,22.40
2017-03-19T13:33:32.622Z,22.40
2017-03-19T13:34:32.178Z,22.40
2017-03-19T13:35:31.795Z,22.40
2017-03-19T13:36:32.667Z,22.30
2017-03-19T13:37:32.134Z,22.30
2017-03-19T13:38:31.094Z,22.30
2017-03-19T13:39:30.226Z,22.30
2017-03-19T13:40:29.296Z,22.30
2017-03-19T13:41:28.810Z,22.30
2017-03-19T13:42:27.789Z,22.30
2017-03-19T13:43:28.658Z,22.30
2017-03-19T13:44:27.590Z,22.30
2017-03-19T13:45:28.758Z,22.30
2017-03-19T13:46:28.349Z,22.30
2017-03-19T13:47:27.301Z,22.30
2017-03-19T13:48:26.457Z,22.30
2017-03-19T13:49:29.841Z,22.30
2017-03-19T13:50:29.063Z,22.30
2017-03-19T13:51:29.435Z,22.30
2017-03-19T13:52:29.557Z,22.30
2017-03-19T13:53:28.495Z,22.30
2017-03-19T13:54:28.283Z,22.30
2017-03-19T13:55:28.441Z,22.20
2017-03-19T13:56:28.104Z,22.20
2017-03-19T13:57:27.011Z,22.20
2017-03-19T13:58:25.940Z,22.20
2017-03-19T13:59:25.059Z,22.20
2017-03-19T14:00:23.919Z,22.20
2017-03-19T14:01:22.813Z,22.10
2017-03-19T14:02:21.785Z,22.20
2017-03-19T14:03:20.559Z,22.10
2017-03-19T14:04:20.565Z,22.20
2017-03-19T14:05:19.296Z,22.20
2017-03-19T14:06:19.574Z,22.20
2017-03-19T14:07:19.086Z,22.10
2017-03-19T14:08:18.365Z,22.10
2017-03-19T14:09:16.968Z,22.10
2017-03-19T14:10:15.548Z,22.10
2017-03-19T14:11:14.221Z,22.10
2017-03-19T14:12:12.840Z,22.10
2017-03-19T14:13:11.460Z,22.20
2017-03-19T14:14:10.143Z,22.20
2017-03-19T14:15:08.852Z,22.10
2017-03-19T14:16:07.864Z,22.10
2017-03-19T14:17:06.659Z,22.10
2017-03-19T14:18:05.414Z,22.10
2017-03-19T14:19:04.144Z,22.10
2017-03-19T14:20:03.855Z,22.10
2017-03-19T14:21:02.644Z,22.10
2017-03-19T14:22:01.421Z,22.10
2017-03-19T14:23:00.442Z,22.00
2017-03-19T14:23:59.596Z,22.10
2017-03-19T14:24:58.875Z,22.10
2017-03-19T14:25:57.904Z,22.10
2017-03-19T14:26:56.833Z,22.10
2017-03-19T14:27:55.654Z,22.10
2017-03-19T14:28:55.546Z,22.10
2017-03-19T14:29:54.251Z,22.10
2017-03-19T14:30:53.009Z,22.10
2017-03-19T14:31:52.112Z,22.10
2017-03-19T14:32:52.217Z,22.00
2017-03-19T14:33:51.878Z,22.00
2017-03-19T14:34:50.878Z,22.00
2017-03-19T14:35:50.819Z,22.00
2017-03-19T14:36:51.601Z,22.10
2017-03-19T14:37:50.820Z,22.10
2017-03-19T14:38:51.706Z,22.10
2017-03-19T14:39:50.424Z,22.10
2017-03-19T14:40:51.443Z,22.10
2017-03-19T14:41:50.874Z,22.00
2017-03-19T14:42:49.752Z,22.10
2017-03-19T14:43:49.262Z,22.00
2017-03-19T14:44:48.676Z,22.10
2017-03-19T14:45:49.372Z,22.10
2017-03-19T14:46:49.015Z,22.10
2017-03-19T14:47:48.478Z,22.10
2017-03-19T14:48:47.176Z,22.10
2017-03-19T14:49:46.091Z,22.10
2017-03-19T14:50:44.962Z,22.10
2017-03-19T14:51:43.879Z,22.10
2017-03-19T14:52:43.040Z,22.10
2017-03-19T14:53:41.967Z,22.10
2017-03-19T14:54:40.865Z,22.10
2017-03-19T14:55:39.540Z,22.10
2017-03-19T14:56:38.464Z,22.10
2017-03-19T14:57:37.261Z,22.10
2017-03-19T14:58:36.225Z,22.10
2017-03-19T14:59:35.805Z,22.10
2017-03-19T15:00:34.768Z,22.10
2017-03-19T15:01:34.909Z,22.10
2017-03-19T15:02:35.542Z,22.10
2017-03-19T15:03:34.437Z,22.10
2017-03-19T15:04:33.416Z,22.10
2017-03-19T15:05:33.390Z,22.10
2017-03-19T15:06:33.080Z,22.10
2017-03-19T15:07:32.041Z,22.10
2017-03-19T15:08:30.977Z,22.10
2017-03-19T15:09:30.347Z,22.10
2017-03-19T15:10:29.329Z,22.10
2017-03-19T15:11:28.914Z,22.10
2017-03-19T15:12:27.846Z,22.10
2017-03-19T15:13:26.848Z,22.10
2017-03-19T15:14:25.817Z,22.10
2017-03-19T15:15:24.899Z,22.10
2017-03-19T15:16:24.488Z,22.10
2017-03-19T15:17:24.939Z,22.10
2017-03-19T15:18:23.991Z,22.10
2017-03-19T15:19:25.855Z,22.10
2017-03-19T15:20:27.491Z,22.10
2017-03-19T15:21:26.497Z,22.10
2017-03-19T15:22:27.006Z,22.10
2017-03-19T15:23:25.959Z,22.10
2017-03-19T15:24:25.714Z,22.10
2017-03-19T15:25:25.780Z,22.20
2017-03-19T15:26:24.725Z,22.20
2017-03-19T15:27:23.826Z,22.20
2017-03-19T15:28:23.298Z,22.20
2017-03-19T15:29:22.226Z,22.20
2017-03-19T15:30:24.307Z,22.20
2017-03-19T15:31:23.293Z,22.20
2017-03-19T15:32:22.700Z,22.20
2017-03-19T15:33:22.770Z,22.20
2017-03-19T15:34:21.748Z,22.30
2017-03-19T15:35:20.725Z,22.30
2017-03-19T15:36:19.772Z,22.30
2017-03-19T15:37:18.895Z,22.30
2017-03-19T15:38:18.263Z,22.30
2017-03-19T15:39:17.372Z,22.30
2017-03-19T15:40:16.759Z,22.30
2017-03-19T15:41:16.714Z,22.30
2017-03-19T15:42:16.847Z,22.30
2017-03-19T15:43:18.276Z,22.30
2017-03-19T15:44:17.914Z,22.30
2017-03-19T15:45:22.054Z,22.40
2017-03-19T15:46:21.031Z,22.40
2017-03-19T15:47:22.255Z,22.40
2017-03-19T15:48:22.111Z,22.40
2017-03-19T15:49:24.539Z,22.30
2017-03-19T15:50:25.042Z,22.40
2017-03-19T15:51:24.227Z,22.40
2017-03-19T15:52:23.234Z,22.40
2017-03-19T15:53:22.232Z,22.40
2017-03-19T15:54:21.878Z,22.40
2017-03-19T15:55:21.809Z,22.40
2017-03-19T15:56:23.597Z,22.40
2017-03-19T15:57:22.882Z,22.30
2017-03-19T15:58:22.062Z,22.30
2017-03-19T15:59:21.749Z,22.30
2017-03-19T16:00:20.839Z,22.30
2017-03-19T16:01:20.523Z,22.30
2017-03-19T16:02:19.531Z,22.30
2017-03-19T16:03:19.349Z,22.30
2017-03-19T16:04:18.501Z,22.30
2017-03-19T16:05:18.208Z,22.20
2017-03-19T16:06:18.656Z,22.20
2017-03-19T16:07:17.744Z,22.20
2017-03-19T16:08:16.808Z,22.20
2017-03-19T16:09:16.657Z,22.20
2017-03-19T16:10:17.871Z,22.20
2017-03-19T16:11:16.867Z,22.20
2017-03-19T16:12:15.877Z,22.30
2017-03-19T16:13:14.933Z,22.40
2017-03-19T16:14:15.679Z,22.40
2017-03-19T16:15:14.812Z,22.40
2017-03-19T16:16:14.670Z,22.40
2017-03-19T16:17:13.740Z,22.40
2017-03-19T16:18:12.951Z,22.40
2017-03-19T16:19:12.024Z,22.40
2017-03-19T16:20:11.629Z,22.40
2017-03-19T16:21:10.589Z,22.30
2017-03-19T16:22:09.729Z,22.30
2017-03-19T16:23:09.594Z,22.20
2017-03-19T16:24:08.823Z,22.10
2017-03-19T16:25:08.029Z,22.10
2017-03-19T16:26:07.796Z,22.00
2017-03-19T16:27:07.258Z,22.00
2017-03-19T16:28:06.451Z,22.00
2017-03-19T16:29:05.612Z,22.00
2017-03-19T16:30:04.710Z,22.00
2017-03-19T16:31:03.861Z,22.00
2017-03-19T16:32:03.783Z,21.90
2017-03-19T16:33:03.002Z,21.90
2017-03-19T16:34:02.175Z,21.90
2017-03-19T16:35:01.340Z,21.90
2017-03-19T16:36:01.008Z,21.90
2017-03-19T16:37:00.553Z,21.90
2017-03-19T16:37:59.771Z,21.90
2017-03-19T16:38:58.914Z,21.90
2017-03-19T16:39:58.704Z,21.90
2017-03-19T16:40:59.029Z,21.80
2017-03-19T16:41:59.108Z,21.70
2017-03-19T16:42:59.298Z,21.80
2017-03-19T16:43:59.143Z,21.90
2017-03-19T16:44:59.395Z,22.00
2017-03-19T16:45:59.591Z,22.10
2017-03-19T16:46:59.809Z,22.20
2017-03-19T16:47:59.132Z,22.20
2017-03-19T16:48:58.351Z,22.30
2017-03-19T16:49:57.614Z,22.30
2017-03-19T16:50:57.327Z,22.30
2017-03-19T16:51:57.668Z,22.30
2017-03-19T16:52:56.895Z,22.30
2017-03-19T16:53:56.851Z,22.30
2017-03-19T16:54:56.111Z,22.30
2017-03-19T16:55:55.471Z,22.30
2017-03-19T16:56:54.615Z,22.30
2017-03-19T16:57:54.426Z,22.30
2017-03-19T16:58:56.691Z,22.20
2017-03-19T16:59:56.343Z,22.30
2017-03-19T17:00:55.911Z,22.30
2017-03-19T17:01:55.400Z,22.30
2017-03-19T17:02:54.885Z,22.30
2017-03-19T17:03:54.004Z,22.30
2017-03-19T17:04:53.394Z,22.30
2017-03-19T17:05:52.449Z,22.30
2017-03-19T17:06:51.704Z,22.30
2017-03-19T17:07:50.819Z,22.30
2017-03-19T17:08:50.555Z,22.30
2017-03-19T17:09:49.811Z,22.30
2017-03-19T17:10:52.993Z,22.30
2017-03-19T17:11:53.513Z,22.30
2017-03-19T17:12:52.761Z,22.30
2017-03-19T17:13:52.798Z,22.30
2017-03-19T17:14:52.126Z,22.30
2017-03-19T17:15:52.451Z,22.30
2017-03-19T17:16:51.750Z,22.30
2017-03-19T17:17:51.157Z,22.30
2017-03-19T17:18:50.404Z,22.30
2017-03-19T17:19:50.009Z,22.30
2017-03-19T17:20:49.485Z,22.30
2017-03-19T17:21:48.756Z,22.30
2017-03-19T17:22:49.007Z,22.30
2017-03-19T17:23:48.277Z,22.30
2017-03-19T17:24:47.508Z,22.30
2017-03-19T17:25:46.746Z,22.30
2017-03-19T17:26:46.493Z,22.30
2017-03-19T17:27:45.745Z,22.30
2017-03-19T17:28:44.913Z,22.30
2017-03-19T17:29:43.981Z,22.30
2017-03-19T17:30:43.175Z,22.30
2017-03-19T17:31:43.174Z,22.30
2017-03-19T17:32:45.337Z,22.40
2017-03-19T17:33:46.196Z,22.30
2017-03-19T17:34:46.431Z,22.40
2017-03-19T17:35:45.966Z,22.40
2017-03-19T17:36:45.299Z,22.40
2017-03-19T17:37:44.534Z,22.40
2017-03-19T17:38:43.788Z,22.40
2017-03-19T17:39:43.016Z,22.40
2017-03-19T17:40:43.182Z,22.40
2017-03-19T17:41:42.449Z,22.30
2017-03-19T17:42:41.654Z,22.30
2017-03-19T17:43:41.850Z,22.30
2017-03-19T17:44:41.104Z,22.30
2017-03-19T17:45:40.364Z,22.30
2017-03-19T17:46:39.557Z,22.30
2017-03-19T17:47:38.770Z,22.30
2017-03-19T17:48:39.364Z,22.30
2017-03-19T17:49:38.495Z,22.40
2017-03-19T17:50:37.745Z,22.40
2017-03-19T17:51:37.326Z,22.40
2017-03-19T17:52:36.489Z,22.40
2017-03-19T17:53:35.713Z,22.40
2017-03-19T17:54:34.994Z,22.40
2017-03-19T17:55:34.261Z,22.30
2017-03-19T17:56:34.137Z,22.40
2017-03-19T17:57:33.709Z,22.30
2017-03-19T17:58:33.349Z,22.30
2017-03-19T17:59:33.624Z,22.30
2017-03-19T18:00:35.145Z,22.30
2017-03-19T18:01:34.406Z,22.30
2017-03-19T18:02:33.614Z,22.30
2017-03-19T18:03:33.244Z,22.40
2017-03-19T18:04:33.329Z,22.30
2017-03-19T18:05:32.628Z,22.30
2017-03-19T18:06:31.950Z,22.30
2017-03-19T18:07:31.796Z,22.30
2017-03-19T18:08:31.552Z,22.30
2017-03-19T18:09:30.737Z,22.30
2017-03-19T18:10:29.960Z,22.30
2017-03-19T18:11:29.546Z,22.40
2017-03-19T18:12:28.783Z,22.40
2017-03-19T18:13:29.016Z,22.40
2017-03-19T18:14:28.306Z,22.40
2017-03-19T18:15:27.524Z,22.40
2017-03-19T18:16:27.316Z,22.40
2017-03-19T18:17:26.607Z,22.40
2017-03-19T18:18:26.164Z,22.40
2017-03-19T18:19:26.258Z,22.40
2017-03-19T18:20:25.525Z,22.40
2017-03-19T18:21:25.277Z,22.40
2017-03-19T18:22:25.985Z,22.40
2017-03-19T18:23:26.649Z,22.40
2017-03-19T18:24:25.997Z,22.40
2017-03-19T18:25:25.260Z,22.40
2017-03-19T18:26:27.325Z,22.40
2017-03-19T18:27:26.633Z,22.40
2017-03-19T18:28:27.048Z,22.40
2017-03-19T18:29:27.787Z,22.40
2017-03-19T18:30:27.844Z,22.40
2017-03-19T18:31:27.064Z,22.40
2017-03-19T18:32:26.345Z,22.40
2017-03-19T18:33:25.938Z,22.40
2017-03-19T18:34:25.173Z,22.40
2017-03-19T18:35:26.053Z,22.40
2017-03-19T18:36:26.221Z,22.40
2017-03-19T18:37:25.479Z,22.50
2017-03-19T18:38:23.963Z,22.40
2017-03-19T18:39:23.265Z,22.50
2017-03-19T18:40:22.956Z,22.50
2017-03-19T18:41:23.962Z,22.50
2017-03-19T18:42:23.301Z,22.50
2017-03-19T18:43:22.535Z,22.50
2017-03-19T18:44:21.917Z,22.50
2017-03-19T18:45:21.758Z,22.40
2017-03-19T18:46:21.228Z,22.40
2017-03-19T18:47:20.964Z,22.40
2017-03-19T18:48:20.252Z,22.40
2017-03-19T18:49:19.422Z,22.40
2017-03-19T18:50:18.666Z,22.40
2017-03-19T18:51:17.794Z,22.40
2017-03-19T18:52:17.015Z,22.40
2017-03-19T18:53:16.226Z,22.50
2017-03-19T18:54:15.654Z,22.50
2017-03-19T18:55:14.908Z,22.50
2017-03-19T18:56:15.519Z,22.60
2017-03-19T18:57:16.583Z,22.50
2017-03-19T18:58:20.839Z,22.60
2017-03-19T18:59:20.763Z,22.60
2017-03-19T19:00:20.327Z,22.50
2017-03-19T19:01:19.909Z,22.50
2017-03-19T19:02:20.027Z,22.60
2017-03-19T19:03:19.727Z,22.60
2017-03-19T19:04:18.966Z,22.60
2017-03-19T19:05:18.775Z,22.60
2017-03-19T19:06:18.141Z,22.60
2017-03-19T19:07:18.131Z,22.60
2017-03-19T19:08:17.406Z,22.60
2017-03-19T19:09:16.598Z,22.70
2017-03-19T19:10:18.031Z,22.70
2017-03-19T19:11:19.056Z,22.70
2017-03-19T19:12:20.141Z,22.60
2017-03-19T19:13:20.401Z,22.70
2017-03-19T19:14:20.390Z,22.70
2017-03-19T19:15:20.666Z,22.80
2017-03-19T19:16:20.794Z,22.80
2017-03-19T19:17:20.831Z,22.90
2017-03-19T19:18:20.622Z,22.90
2017-03-19T19:19:20.058Z,23.00
2017-03-19T19:20:19.299Z,23.10
2017-03-19T19:21:19.020Z,23.00
2017-03-19T19:22:18.390Z,23.10
2017-03-19T19:23:17.621Z,23.10
2017-03-19T19:24:17.150Z,23.10
2017-03-19T19:25:16.212Z,23.20
2017-03-19T19:26:15.558Z,23.20
2017-03-19T19:27:14.977Z,23.30
2017-03-19T19:28:15.407Z,23.20
2017-03-19T19:29:15.479Z,23.30
2017-03-19T19:30:15.582Z,23.30
2017-03-19T19:31:15.649Z,23.40
2017-03-19T19:32:15.322Z,23.40
2017-03-19T19:33:14.535Z,23.40
2017-03-19T19:34:14.598Z,23.50
2017-03-19T19:35:13.747Z,23.50
2017-03-19T19:36:12.960Z,23.50
2017-03-19T19:37:12.979Z,23.50
2017-03-19T19:38:13.223Z,23.60
2017-03-19T19:39:12.371Z,23.60
2017-03-19T19:40:12.984Z,23.60
2017-03-19T19:41:12.164Z,23.60
2017-03-19T19:42:13.239Z,23.60
2017-03-19T19:43:12.504Z,23.70
2017-03-19T19:44:13.267Z,23.70
2017-03-19T19:45:12.600Z,23.70
2017-03-19T19:46:12.230Z,23.70
2017-03-19T19:47:12.106Z,23.70
2017-03-19T19:48:11.250Z,23.80
2017-03-19T19:49:10.707Z,23.80
2017-03-19T19:50:10.869Z,23.80
2017-03-19T19:51:10.256Z,23.80
2017-03-19T19:52:11.032Z,23.80
2017-03-19T19:53:11.315Z,23.80
2017-03-19T19:54:10.556Z,23.90
2017-03-19T19:55:11.003Z,23.90
2017-03-19T19:56:10.021Z,23.90
2017-03-19T19:57:09.167Z,23.90
2017-03-19T19:58:09.402Z,23.90
2017-03-19T19:59:08.521Z,24.00
2017-03-19T20:00:09.416Z,23.90
2017-03-19T20:01:08.553Z,24.00
2017-03-19T20:02:07.967Z,24.00
2017-03-19T20:03:07.204Z,24.00
2017-03-19T20:04:08.140Z,24.00
2017-03-19T20:05:07.374Z,24.00
2017-03-19T20:06:06.428Z,24.10
2017-03-19T20:07:05.712Z,24.00
2017-03-19T20:08:04.999Z,24.10